Time;durP1;ratioP1;P1;durP2;ratioP2;P2;SDS_P1;SDS_P2;PMS_P1;PMS_P2;Temp;Humidity;BMP_temperature;BMP_pressure;BME280_temperature;BME280_humidity;BME280_pressure;Samples;Min_cycle;Max_cycle;Signal;HPM_P1;HPM_P2
2022/11/12 00:01:12;;;;;;;0.00;0.00;;;;;;;;;;5075177;28;20263;-76
2022/11/12 00:03:40;;;;;;;0.00;0.00;;;;;;;;;;5087212;28;20268;-76
2022/11/12 00:06:09;;;;;;;0.00;0.00;;;;;;;;;;5075221;28;20629;-76
2022/11/12 00:08:37;;;;;;;0.00;0.00;;;;;;;;;;5075008;28;20206;-76
2022/11/12 00:11:06;;;;;;;0.00;0.00;;;;;;;;;;5074610;28;20735;-76
2022/11/12 00:13:36;;;;;;;0.00;0.00;;;;;;;;;;5073716;28;20290;-76
2022/11/12 00:16:05;;;;;;;0.00;0.00;;;;;;;;;;5091104;28;20304;-76
2022/11/12 00:18:33;;;;;;;0.00;0.00;;;;;;;;;;5079915;28;20691;-76
2022/11/12 00:21:02;;;;;;;0.00;0.00;;;;;;;;;;5074946;28;20284;-76
2022/11/12 00:23:30;;;;;;;0.00;0.00;;;;;;;;;;5076707;28;20263;-76
2022/11/12 00:25:59;;;;;;;0.00;0.00;;;;;;;;;;5095063;28;20244;-76
2022/11/12 00:28:28;;;;;;;0.00;0.00;;;;;;;;;;5086394;28;20234;-76
2022/11/12 00:31:09;;;;;;;0.00;0.00;;;;;;;;;;5095296;28;20224;-76
2022/11/12 00:33:41;;;;;;;0.00;0.00;;;;;;;;;;5089453;28;20234;-76
2022/11/12 00:36:10;;;;;;;0.00;0.00;;;;;;;;;;5074656;28;20713;-76
2022/11/12 00:38:39;;;;;;;0.00;0.00;;;;;;;;;;5090236;28;20342;-76
2022/11/12 00:41:07;;;;;;;0.00;0.00;;;;;;;;;;5094554;28;20251;-76
2022/11/12 00:43:36;;;;;;;0.00;0.00;;;;;;;;;;5077506;28;20202;-76
2022/11/12 00:46:04;;;;;;;0.00;0.00;;;;;;;;;;5072790;28;20305;-76
2022/11/12 00:48:34;;;;;;;0.00;0.00;;;;;;;;;;5073805;28;20252;-76
2022/11/12 00:51:03;;;;;;;0.00;0.00;;;;;;;;;;5074060;28;20233;-76
2022/11/12 00:53:31;;;;;;;0.00;0.00;;;;;;;;;;5074996;28;20209;-76
2022/11/12 00:56:04;;;;;;;0.00;0.00;;;;;;;;;;5073949;28;20234;-76
2022/11/12 00:58:33;;;;;;;0.00;0.00;;;;;;;;;;5073490;28;20263;-76
2022/11/12 01:01:06;;;;;;;0.00;0.00;;;;;;;;;;5074016;28;20222;-76
2022/11/12 01:03:36;;;;;;;0.00;0.00;;;;;;;;;;5080103;28;20209;-77
2022/11/12 01:06:05;;;;;;;0.00;0.00;;;;;;;;;;5088938;28;20337;-77
2022/11/12 01:08:33;;;;;;;0.00;0.00;;;;;;;;;;5086981;28;20631;-76
2022/11/12 01:11:06;;;;;;;0.00;0.00;;;;;;;;;;5094495;28;20256;-76
2022/11/12 01:13:34;;;;;;;0.00;0.00;;;;;;;;;;5084423;28;20236;-76
2022/11/12 01:16:10;;;;;;;0.00;0.00;;;;;;;;;;5073482;28;20679;-76
2022/11/12 01:18:40;;;;;;;0.00;0.00;;;;;;;;;;5073976;28;20233;-76
2022/11/12 01:21:09;;;;;;;0.00;0.00;;;;;;;;;;5073932;28;20210;-76
2022/11/12 01:23:38;;;;;;;0.00;0.00;;;;;;;;;;5083475;28;20285;-76
2022/11/12 01:26:07;;;;;;;0.00;0.00;;;;;;;;;;5091089;28;20212;-76
2022/11/12 01:28:36;;;;;;;0.00;0.00;;;;;;;;;;5073420;28;20229;-76
2022/11/12 01:31:11;;;;;;;0.00;0.00;;;;;;;;;;5086436;28;20290;-76
2022/11/12 01:33:41;;;;;;;0.00;0.00;;;;;;;;;;5091506;28;20203;-76
2022/11/12 01:36:10;;;;;;;0.10;0.10;;;;;;;;;;5073665;28;20232;-76
2022/11/12 01:38:39;;;;;;;0.00;0.00;;;;;;;;;;5073360;28;20258;-76
2022/11/12 01:41:08;;;;;;;0.00;0.00;;;;;;;;;;5073090;28;20451;-76
2022/11/12 01:43:37;;;;;;;0.10;0.10;;;;;;;;;;5073371;28;20713;-76
2022/11/12 01:46:12;;;;;;;0.00;0.00;;;;;;;;;;5073241;28;20295;-76
2022/11/12 01:48:47;;;;;;;0.00;0.00;;;;;;;;;;5086331;28;20218;-76
2022/11/12 01:51:16;;;;;;;0.00;0.00;;;;;;;;;;5093726;28;20310;-76
2022/11/12 01:53:47;;;;;;;0.00;0.00;;;;;;;;;;5087394;28;20288;-76
2022/11/12 01:56:16;;;;;;;0.00;0.00;;;;;;;;;;5073779;28;20290;-76
2022/11/12 01:58:47;;;;;;;0.00;0.00;;;;;;;;;;5076515;28;20255;-75
2022/11/12 02:01:15;;;;;;;0.00;0.00;;;;;;;;;;5073099;28;20314;-76
2022/11/12 02:03:45;;;;;;;0.00;0.00;;;;;;;;;;5073731;28;20198;-76
2022/11/12 02:06:15;;;;;;;0.00;0.00;;;;;;;;;;5073358;28;20296;-76
2022/11/12 02:08:44;;;;;;;0.00;0.00;;;;;;;;;;5072885;28;20209;-76
2022/11/12 02:11:14;;;;;;;0.00;0.00;;;;;;;;;;5084400;28;20237;-76
2022/11/12 02:13:57;;;;;;;0.00;0.00;;;;;;;;;;5081560;28;20205;-76
2022/11/12 02:16:26;;;;;;;0.00;0.00;;;;;;;;;;5073013;28;20632;-76
2022/11/12 02:18:56;;;;;;;0.00;0.00;;;;;;;;;;5072122;28;20290;-76
2022/11/12 02:21:26;;;;;;;0.00;0.00;;;;;;;;;;5078957;28;20240;-76
2022/11/12 02:24:01;;;;;;;0.00;0.00;;;;;;;;;;5080068;28;20262;-76
2022/11/12 02:26:31;;;;;;;0.07;0.07;;;;;;;;;;5077624;28;20627;-76
2022/11/12 02:29:00;;;;;;;0.00;0.00;;;;;;;;;;5075958;28;20237;-76
2022/11/12 02:31:28;;;;;;;0.00;0.00;;;;;;;;;;5074200;28;20328;-76
2022/11/12 02:33:57;;;;;;;0.00;0.00;;;;;;;;;;5072845;28;20236;-76
2022/11/12 02:36:26;;;;;;;0.00;0.00;;;;;;;;;;5081960;28;20648;-76
2022/11/12 02:38:55;;;;;;;0.00;0.00;;;;;;;;;;5097603;28;20633;-77
2022/11/12 02:41:23;;;;;;;0.00;0.00;;;;;;;;;;5078500;28;20244;-76
2022/11/12 02:43:52;;;;;;;0.00;0.00;;;;;;;;;;5086765;28;20243;-76
2022/11/12 02:46:20;;;;;;;0.00;0.00;;;;;;;;;;5088097;28;20620;-76
2022/11/12 02:48:49;;;;;;;0.00;0.00;;;;;;;;;;5097397;28;20250;-76
2022/11/12 02:51:17;;;;;;;0.00;0.00;;;;;;;;;;5087169;28;20206;-76
2022/11/12 02:53:47;;;;;;;0.00;0.00;;;;;;;;;;5096153;28;20306;-76
2022/11/12 02:56:16;;;;;;;0.00;0.00;;;;;;;;;;5092008;28;20677;-77
2022/11/12 02:58:44;;;;;;;0.00;0.00;;;;;;;;;;5096758;28;20753;-76
2022/11/12 03:01:12;;;;;;;0.00;0.00;;;;;;;;;;5079440;28;20206;-76
2022/11/12 03:03:41;;;;;;;0.00;0.00;;;;;;;;;;5082847;28;20282;-75
2022/11/12 03:06:09;;;;;;;0.00;0.00;;;;;;;;;;5087190;28;20240;-76
2022/11/12 03:08:38;;;;;;;0.03;0.03;;;;;;;;;;5079611;28;20288;-76
2022/11/12 03:11:09;;;;;;;0.10;0.10;;;;;;;;;;5076432;28;20238;-76
2022/11/12 03:13:37;;;;;;;0.00;0.00;;;;;;;;;;5089915;28;20252;-76
2022/11/12 03:16:06;;;;;;;0.00;0.00;;;;;;;;;;5093594;28;20304;-76
2022/11/12 03:18:34;;;;;;;0.00;0.00;;;;;;;;;;5096526;28;20249;-77
2022/11/12 03:21:03;;;;;;;0.00;0.00;;;;;;;;;;5086231;28;20235;-76
2022/11/12 03:23:31;;;;;;;0.00;0.00;;;;;;;;;;5095421;28;20640;-77
2022/11/12 03:26:02;;;;;;;0.00;0.00;;;;;;;;;;5081219;28;20250;-76
2022/11/12 03:28:32;;;;;;;0.00;0.00;;;;;;;;;;5076185;28;20209;-76
2022/11/12 03:31:01;;;;;;;0.00;0.00;;;;;;;;;;5076432;28;20205;-76
2022/11/12 03:33:29;;;;;;;0.00;0.00;;;;;;;;;;5078447;28;20269;-77
2022/11/12 03:35:58;;;;;;;0.00;0.00;;;;;;;;;;5090993;28;20208;-76
2022/11/12 03:38:26;;;;;;;0.00;0.00;;;;;;;;;;5075953;28;20634;-77
2022/11/12 03:40:55;;;;;;;0.00;0.00;;;;;;;;;;5087889;28;20655;-77
2022/11/12 03:43:24;;;;;;;0.00;0.00;;;;;;;;;;5091915;28;20212;-77
2022/11/12 03:45:54;;;;;;;0.00;0.00;;;;;;;;;;5075314;28;20228;-77
2022/11/12 03:48:22;;;;;;;0.00;0.00;;;;;;;;;;5075885;28;20660;-76
2022/11/12 03:50:51;;;;;;;0.00;0.00;;;;;;;;;;5089364;28;20282;-76
2022/11/12 03:53:20;;;;;;;0.00;0.00;;;;;;;;;;5091143;28;20306;-77
2022/11/12 03:55:48;;;;;;;0.00;0.00;;;;;;;;;;5081597;28;20207;-76
2022/11/12 03:58:18;;;;;;;0.00;0.00;;;;;;;;;;5078879;28;20208;-76
2022/11/12 04:00:46;;;;;;;0.00;0.00;;;;;;;;;;5076261;28;20239;-77
2022/11/12 04:03:16;;;;;;;0.10;0.10;;;;;;;;;;5075312;28;20219;-77
2022/11/12 04:08:36;;;;;;;0.00;0.00;;;;;;;;;;5075948;28;20301;-77
2022/11/12 04:11:06;;;;;;;0.00;0.00;;;;;;;;;;5075020;28;20191;-77
2022/11/12 04:13:34;;;;;;;0.00;0.00;;;;;;;;;;5079043;28;20246;-77
2022/11/12 04:21:51;;;;;;;0.00;0.00;;;;;;;;;;5075053;28;20226;-77
2022/11/12 04:27:07;;;;;;;0.10;0.10;;;;;;;;;;5074763;28;20625;-77
2022/11/12 04:32:22;;;;;;;0.00;0.00;;;;;;;;;;5092166;28;20258;-76
2022/11/12 04:34:52;;;;;;;0.00;0.00;;;;;;;;;;5077849;28;20664;-76
2022/11/12 04:37:21;;;;;;;0.07;0.07;;;;;;;;;;5093692;28;20688;-77
2022/11/12 04:39:51;;;;;;;0.00;0.00;;;;;;;;;;5090326;28;20290;-76
2022/11/12 04:45:07;;;;;;;0.10;0.10;;;;;;;;;;5074431;28;20683;-76
2022/11/12 04:47:36;;;;;;;0.07;0.07;;;;;;;;;;5074453;28;20263;-76
2022/11/12 04:50:07;;;;;;;0.10;0.10;;;;;;;;;;5074195;28;20252;-76
2022/11/12 04:52:36;;;;;;;0.00;0.00;;;;;;;;;;5073752;28;20260;-77
2022/11/12 04:55:04;;;;;;;0.00;0.00;;;;;;;;;;5088784;28;20244;-77
2022/11/12 04:57:33;;;;;;;0.00;0.00;;;;;;;;;;5093247;28;20241;-77
2022/11/12 05:00:02;;;;;;;0.10;0.10;;;;;;;;;;5094287;28;20248;-77
2022/11/12 05:02:30;;;;;;;0.00;0.00;;;;;;;;;;5074983;28;20257;-77
2022/11/12 05:04:59;;;;;;;0.00;0.00;;;;;;;;;;5073103;28;20239;-76
2022/11/12 05:07:29;;;;;;;0.00;0.00;;;;;;;;;;5073652;28;20234;-76
2022/11/12 05:09:57;;;;;;;0.00;0.00;;;;;;;;;;5074209;28;20204;-77
2022/11/12 05:12:26;;;;;;;0.00;0.00;;;;;;;;;;5073380;28;20311;-77
2022/11/12 05:14:54;;;;;;;0.00;0.00;;;;;;;;;;5072196;28;20224;-76
2022/11/12 05:17:22;;;;;;;0.10;0.10;;;;;;;;;;5073488;28;20281;-76
2022/11/12 05:19:51;;;;;;;0.10;0.10;;;;;;;;;;5073776;28;20210;-77
2022/11/12 05:22:18;;;;;;;0.10;0.10;;;;;;;;;;5072398;28;20307;-76
2022/11/12 05:25:09;;;;;;;0.00;0.00;;;;;;;;;;5083957;28;20730;-76
2022/11/12 05:27:37;;;;;;;0.00;0.00;;;;;;;;;;5074360;28;20252;-76
2022/11/12 05:30:06;;;;;;;0.00;0.00;;;;;;;;;;5073724;28;20353;-76
2022/11/12 05:32:35;;;;;;;0.00;0.00;;;;;;;;;;5074719;28;20698;-75
2022/11/12 05:35:03;;;;;;;0.10;0.10;;;;;;;;;;5073054;28;20261;-76
2022/11/12 05:37:32;;;;;;;0.10;0.10;;;;;;;;;;5074725;28;20714;-75
2022/11/12 05:40:00;;;;;;;0.10;0.10;;;;;;;;;;5077654;28;20255;-76
2022/11/12 05:42:30;;;;;;;0.00;0.00;;;;;;;;;;5074214;28;20218;-76
2022/11/12 05:44:58;;;;;;;0.00;0.00;;;;;;;;;;5091193;28;20614;-76
2022/11/12 05:47:27;;;;;;;0.00;0.00;;;;;;;;;;5081735;28;20239;-76
2022/11/12 05:49:55;;;;;;;0.00;0.00;;;;;;;;;;5073686;28;20305;-76
2022/11/12 05:52:24;;;;;;;0.10;0.10;;;;;;;;;;5074090;28;20272;-76
2022/11/12 05:54:52;;;;;;;0.10;0.10;;;;;;;;;;5083266;28;20225;-75
2022/11/12 05:57:21;;;;;;;0.10;0.10;;;;;;;;;;5088359;28;20395;-76
2022/11/12 05:59:51;;;;;;;0.10;0.10;;;;;;;;;;5073342;28;20210;-76
2022/11/12 06:02:19;;;;;;;0.00;0.00;;;;;;;;;;5073080;28;20313;-75
2022/11/12 06:04:48;;;;;;;0.10;0.10;;;;;;;;;;5073257;28;20281;-75
2022/11/12 06:07:16;;;;;;;0.00;0.00;;;;;;;;;;5073007;28;20230;-75
2022/11/12 06:09:44;;;;;;;0.00;0.00;;;;;;;;;;5074560;28;20635;-75
2022/11/12 06:12:13;;;;;;;0.10;0.10;;;;;;;;;;5077264;28;20642;-75
2022/11/12 06:14:41;;;;;;;0.00;0.00;;;;;;;;;;5078745;28;20306;-75
2022/11/12 06:17:11;;;;;;;0.10;0.10;;;;;;;;;;5077774;28;20202;-75
2022/11/12 06:19:40;;;;;;;0.00;0.00;;;;;;;;;;5085406;28;20197;-75
2022/11/12 06:22:08;;;;;;;0.10;0.10;;;;;;;;;;5081942;28;20292;-75
2022/11/12 06:24:36;;;;;;;1.33;1.10;;;;;;;;;;5084604;28;20236;-75
2022/11/12 06:27:05;;;;;;;5.53;4.70;;;;;;;;;;5087149;28;20201;-75
2022/11/12 06:29:33;;;;;;;8.07;4.83;;;;;;;;;;5094205;28;20228;-75
2022/11/12 06:32:02;;;;;;;6.97;5.40;;;;;;;;;;5076667;28;20226;-75
2022/11/12 06:34:32;;;;;;;6.80;5.37;;;;;;;;;;5089021;28;20315;-75
2022/11/12 06:37:00;;;;;;;5.70;5.10;;;;;;;;;;5076529;28;20638;-75
2022/11/12 06:39:28;;;;;;;6.90;5.27;;;;;;;;;;5076158;28;20294;-75
2022/11/12 06:41:57;;;;;;;5.77;5.27;;;;;;;;;;5075858;28;20254;-75
2022/11/12 06:44:25;;;;;;;8.03;5.00;;;;;;;;;;5075937;28;20268;-75
2022/11/12 06:46:54;;;;;;;7.60;5.20;;;;;;;;;;5076150;28;20298;-75
2022/11/12 06:49:22;;;;;;;7.00;5.07;;;;;;;;;;5076041;28;20234;-75
2022/11/12 06:51:52;;;;;;;9.73;5.93;;;;;;;;;;5076389;28;20325;-75
2022/11/12 06:54:20;;;;;;;6.90;5.57;;;;;;;;;;5090921;28;20323;-75
2022/11/12 06:56:49;;;;;;;6.87;5.20;;;;;;;;;;5086896;28;20627;-75
2022/11/12 06:59:17;;;;;;;6.20;4.77;;;;;;;;;;5091411;28;20250;-75
2022/11/12 07:01:46;;;;;;;7.33;5.47;;;;;;;;;;5091721;28;20256;-75
2022/11/12 07:04:14;;;;;;;5.70;5.10;;;;;;;;;;5078227;28;20197;-75
2022/11/12 07:06:43;;;;;;;5.70;5.10;;;;;;;;;;5077220;28;20339;-75
2022/11/12 07:09:12;;;;;;;5.80;5.07;;;;;;;;;;5091338;28;20201;-75
2022/11/12 07:11:41;;;;;;;5.23;4.73;;;;;;;;;;5095571;28;20214;-75
2022/11/12 07:14:10;;;;;;;6.57;5.20;;;;;;;;;;5095020;28;20310;-75
2022/11/12 07:16:38;;;;;;;6.47;5.87;;;;;;;;;;5075317;28;20298;-75
2022/11/12 07:19:07;;;;;;;7.23;5.57;;;;;;;;;;5076330;28;20202;-75
2022/11/12 07:21:35;;;;;;;8.77;6.53;;;;;;;;;;5075148;28;20254;-75
2022/11/12 07:24:04;;;;;;;7.40;6.20;;;;;;;;;;5081536;28;20278;-75
2022/11/12 07:26:34;;;;;;;6.57;5.87;;;;;;;;;;5089553;28;20270;-75
2022/11/12 07:29:02;;;;;;;6.63;5.40;;;;;;;;;;5081777;28;20718;-75
2022/11/12 07:31:31;;;;;;;8.80;6.00;;;;;;;;;;5081510;28;20250;-75
2022/11/12 07:33:59;;;;;;;9.10;6.27;;;;;;;;;;5088025;28;20210;-75
2022/11/12 07:36:28;;;;;;;6.97;6.27;;;;;;;;;;5075371;28;20206;-75
2022/11/12 07:38:56;;;;;;;8.43;7.23;;;;;;;;;;5076113;28;20212;-75
2022/11/12 07:41:25;;;;;;;8.50;6.30;;;;;;;;;;5094537;28;20244;-75
2022/11/12 07:43:55;;;;;;;8.60;6.50;;;;;;;;;;5085123;28;20721;-75
2022/11/12 07:46:25;;;;;;;8.87;7.00;;;;;;;;;;5081206;28;20666;-75
2022/11/12 07:48:55;;;;;;;13.97;8.47;;;;;;;;;;5075949;28;20717;-75
2022/11/12 07:51:24;;;;;;;11.00;8.23;;;;;;;;;;5081077;28;20654;-75
2022/11/12 07:53:54;;;;;;;10.87;8.87;;;;;;;;;;5077029;28;20255;-75
2022/11/12 07:56:27;;;;;;;6.90;5.37;;;;;;;;;;5076338;28;20183;-75
2022/11/12 07:58:57;;;;;;;12.37;8.43;;;;;;;;;;5082170;28;20206;-75
2022/11/12 08:01:29;;;;;;;6.43;4.67;;;;;;;;;;5092954;28;20214;-75
2022/11/12 08:03:57;;;;;;;4.23;3.50;;;;;;;;;;5076224;28;20210;-75
2022/11/12 08:06:26;;;;;;;9.03;8.10;;;;;;;;;;5075867;28;20308;-75
2022/11/12 08:08:55;;;;;;;9.33;7.20;;;;;;;;;;5074240;28;20229;-75
2022/11/12 08:11:24;;;;;;;9.30;8.20;;;;;;;;;;5073493;28;20264;-75
2022/11/12 08:13:52;;;;;;;10.13;8.93;;;;;;;;;;5089461;28;20201;-75
2022/11/12 08:16:22;;;;;;;12.53;9.47;;;;;;;;;;5087975;28;20308;-75
2022/11/12 08:18:51;;;;;;;11.20;8.83;;;;;;;;;;5076247;28;20229;-75
2022/11/12 08:21:19;;;;;;;9.07;8.17;;;;;;;;;;5072947;28;20224;-75
2022/11/12 08:23:48;;;;;;;9.00;8.10;;;;;;;;;;5078975;28;20251;-75
2022/11/12 08:26:18;;;;;;;10.97;8.60;;;;;;;;;;5078086;28;20582;-75
2022/11/12 08:28:46;;;;;;;9.33;8.33;;;;;;;;;;5086220;28;20198;-75
2022/11/12 08:31:16;;;;;;;10.43;9.30;;;;;;;;;;5089403;28;20234;-75
2022/11/12 08:33:46;;;;;;;8.57;7.37;;;;;;;;;;5084864;28;20238;-75
2022/11/12 08:36:15;;;;;;;12.83;9.70;;;;;;;;;;5074227;28;20265;-75
2022/11/12 08:38:44;;;;;;;10.57;9.37;;;;;;;;;;5073721;28;20248;-75
2022/11/12 08:41:13;;;;;;;9.63;8.57;;;;;;;;;;5072294;28;20252;-75
2022/11/12 08:43:43;;;;;;;10.93;9.60;;;;;;;;;;5080246;28;20600;-75
2022/11/12 08:46:12;;;;;;;10.03;9.07;;;;;;;;;;5077170;28;20203;-75
2022/11/12 08:48:41;;;;;;;9.87;8.87;;;;;;;;;;5079637;28;20700;-75
2022/11/12 08:51:10;;;;;;;9.83;8.33;;;;;;;;;;5080581;28;20258;-75
2022/11/12 08:53:39;;;;;;;10.10;9.17;;;;;;;;;;5080971;28;20197;-75
2022/11/12 08:56:07;;;;;;;11.20;8.10;;;;;;;;;;5080310;28;20308;-75
2022/11/12 08:58:36;;;;;;;10.50;8.97;;;;;;;;;;5085052;28;20210;-75
2022/11/12 09:01:05;;;;;;;1.70;1.60;;;;;;;;;;5082838;28;20229;-75
2022/11/12 09:03:34;;;;;;;0.00;0.00;;;;;;;;;;5079040;28;20281;-75
2022/11/12 09:06:03;;;;;;;7.33;6.60;;;;;;;;;;5082473;28;20219;-75
2022/11/12 09:08:34;;;;;;;3.60;2.77;;;;;;;;;;5073134;28;20321;-75
2022/11/12 09:11:02;;;;;;;2.50;2.30;;;;;;;;;;5078382;28;20247;-76
2022/11/12 09:13:31;;;;;;;3.43;3.10;;;;;;;;;;5078621;28;20250;-75
2022/11/12 09:16:03;;;;;;;6.50;4.83;;;;;;;;;;5079813;28;20267;-75
2022/11/12 09:18:32;;;;;;;4.37;3.97;;;;;;;;;;5087802;28;20231;-75
2022/11/12 09:21:01;;;;;;;2.20;0.87;;;;;;;;;;5081492;28;20266;-75
2022/11/12 09:23:33;;;;;;;0.00;0.00;;;;;;;;;;5080992;28;20307;-75
2022/11/12 09:26:02;;;;;;;0.00;0.00;;;;;;;;;;5086876;28;20225;-76
2022/11/12 09:28:30;;;;;;;0.00;0.00;;;;;;;;;;5091507;28;20292;-75
2022/11/12 09:30:59;;;;;;;0.00;0.00;;;;;;;;;;5081781;28;20260;-76
2022/11/12 09:33:30;;;;;;;2.03;1.93;;;;;;;;;;5073832;28;20225;-76
2022/11/12 09:36:00;;;;;;;1.10;1.07;;;;;;;;;;5078220;28;20282;-76
2022/11/12 09:38:29;;;;;;;0.63;0.63;;;;;;;;;;5082270;28;20204;-76
2022/11/12 09:41:15;;;;;;;0.00;0.00;;;;;;;;;;5082666;28;20203;-76
2022/11/12 09:43:47;;;;;;;0.00;0.00;;;;;;;;;;5080522;28;20283;-76
2022/11/12 09:46:21;;;;;;;0.00;0.00;;;;;;;;;;5092376;28;20197;-76
2022/11/12 09:48:58;;;;;;;0.00;0.00;;;;;;;;;;5080542;28;20205;-75
2022/11/12 09:51:27;;;;;;;0.00;0.00;;;;;;;;;;5074746;28;20611;-75
2022/11/12 09:53:57;;;;;;;0.00;0.00;;;;;;;;;;5084864;28;20226;-76
2022/11/12 09:56:28;;;;;;;0.00;0.00;;;;;;;;;;5079791;28;20297;-76
2022/11/12 09:58:58;;;;;;;0.00;0.00;;;;;;;;;;5086570;28;20241;-76
2022/11/12 10:01:38;;;;;;;0.00;0.00;;;;;;;;;;5079205;28;20624;-76
2022/11/12 10:04:20;;;;;;;0.00;0.00;;;;;;;;;;5080228;28;20237;-76
2022/11/12 10:06:52;;;;;;;0.00;0.00;;;;;;;;;;5086389;28;20282;-76
2022/11/12 10:09:23;;;;;;;0.00;0.00;;;;;;;;;;5078766;28;20220;-76
2022/11/12 10:14:57;;;;;;;0.00;0.00;;;;;;;;;;5073851;28;20306;-76
2022/11/12 10:17:29;;;;;;;0.00;0.00;;;;;;;;;;5078547;28;20277;-77
2022/11/12 10:20:01;;;;;;;0.00;0.00;;;;;;;;;;5074017;28;20628;-77
2022/11/12 10:22:36;;;;;;;0.00;0.00;;;;;;;;;;5074726;28;20317;-77
2022/11/12 10:25:13;;;;;;;0.00;0.00;;;;;;;;;;5081102;28;20217;-77
2022/11/12 10:27:42;;;;;;;0.00;0.00;;;;;;;;;;5082427;28;20203;-77
2022/11/12 10:30:16;;;;;;;0.00;0.00;;;;;;;;;;5075483;28;20229;-77
2022/11/12 10:32:45;;;;;;;0.00;0.00;;;;;;;;;;5090618;28;20221;-77
2022/11/12 10:35:16;;;;;;;0.00;0.00;;;;;;;;;;5073003;28;20245;-77
2022/11/12 10:37:48;;;;;;;0.00;0.00;;;;;;;;;;5080544;28;20246;-77
2022/11/12 10:40:28;;;;;;;0.00;0.00;;;;;;;;;;5073098;28;20288;-76
2022/11/12 10:42:57;;;;;;;0.00;0.00;;;;;;;;;;5073176;28;20233;-76
2022/11/12 10:45:27;;;;;;;0.00;0.00;;;;;;;;;;5076498;28;20210;-76
2022/11/12 10:47:56;;;;;;;0.00;0.00;;;;;;;;;;5086253;28;20709;-76
2022/11/12 10:50:28;;;;;;;0.00;0.00;;;;;;;;;;5077990;28;20201;-76
2022/11/12 10:52:58;;;;;;;0.00;0.00;;;;;;;;;;5083626;28;20237;-76
2022/11/12 10:55:27;;;;;;;0.00;0.00;;;;;;;;;;5072926;28;20299;-77
2022/11/12 10:58:20;;;;;;;0.00;0.00;;;;;;;;;;5078749;28;20256;-76
2022/11/12 11:01:00;;;;;;;0.77;0.77;;;;;;;;;;5075800;28;20651;-77
2022/11/12 11:03:30;;;;;;;0.00;0.00;;;;;;;;;;5078179;28;20392;-77
2022/11/12 11:06:00;;;;;;;0.00;0.00;;;;;;;;;;5080667;28;20194;-77
2022/11/12 11:08:32;;;;;;;1.03;0.93;;;;;;;;;;5076737;28;20216;-77
2022/11/12 11:11:21;;;;;;;1.43;1.33;;;;;;;;;;5081868;28;20211;-77
2022/11/12 11:13:50;;;;;;;0.00;0.00;;;;;;;;;;5088126;28;20202;-77
2022/11/12 11:16:25;;;;;;;0.00;0.00;;;;;;;;;;5075602;28;20223;-77
2022/11/12 11:18:56;;;;;;;0.00;0.00;;;;;;;;;;5076313;28;20218;-76
2022/11/12 11:21:32;;;;;;;0.00;0.00;;;;;;;;;;5083212;28;20580;-76
2022/11/12 11:24:34;;;;;;;0.00;0.00;;;;;;;;;;5083545;28;20193;-77
2022/11/12 11:27:05;;;;;;;0.00;0.00;;;;;;;;;;5077279;28;20567;-76
2022/11/12 11:29:48;;;;;;;0.00;0.00;;;;;;;;;;5074326;28;20237;-76
2022/11/12 11:32:23;;;;;;;0.00;0.00;;;;;;;;;;5083610;28;20636;-77
2022/11/12 11:34:55;;;;;;;0.00;0.00;;;;;;;;;;5095372;28;20236;-77
2022/11/12 11:37:26;;;;;;;0.00;0.00;;;;;;;;;;5081564;28;20262;-76
2022/11/12 11:40:01;;;;;;;0.00;0.00;;;;;;;;;;5086335;28;20289;-76
2022/11/12 11:42:48;;;;;;;0.00;0.00;;;;;;;;;;5085085;28;20230;-77
2022/11/12 11:45:18;;;;;;;0.00;0.00;;;;;;;;;;5075019;28;20296;-76
2022/11/12 11:47:51;;;;;;;0.00;0.00;;;;;;;;;;5076150;28;20205;-77
2022/11/12 11:50:30;;;;;;;0.00;0.00;;;;;;;;;;5074813;28;20210;-77
2022/11/12 11:53:04;;;;;;;0.00;0.00;;;;;;;;;;5074770;28;20283;-76
2022/11/12 11:55:37;;;;;;;0.00;0.00;;;;;;;;;;5088745;28;20222;-77
2022/11/12 11:58:23;;;;;;;0.00;0.00;;;;;;;;;;5091597;28;20708;-77
2022/11/12 12:00:55;;;;;;;0.00;0.00;;;;;;;;;;5074911;28;20202;-77
2022/11/12 12:03:29;;;;;;;0.00;0.00;;;;;;;;;;5073884;28;20297;-76
2022/11/12 12:06:10;;;;;;;0.00;0.00;;;;;;;;;;5075692;28;20229;-77
2022/11/12 12:08:43;;;;;;;0.00;0.00;;;;;;;;;;5073653;28;20655;-77
2022/11/12 12:11:15;;;;;;;0.00;0.00;;;;;;;;;;5077457;28;20633;-76
2022/11/12 12:13:50;;;;;;;0.00;0.00;;;;;;;;;;5086558;28;20226;-77
2022/11/12 12:16:27;;;;;;;0.00;0.00;;;;;;;;;;5077341;28;20276;-76
2022/11/12 12:19:02;;;;;;;0.00;0.00;;;;;;;;;;5092121;28;20280;-77
2022/11/12 12:21:33;;;;;;;0.00;0.00;;;;;;;;;;5082346;28;20221;-77
2022/11/12 12:24:02;;;;;;;0.00;0.00;;;;;;;;;;5087538;28;20205;-76
2022/11/12 12:26:33;;;;;;;0.00;0.00;;;;;;;;;;5088499;28;20299;-77
2022/11/12 12:29:04;;;;;;;0.00;0.00;;;;;;;;;;5085079;28;20205;-77
2022/11/12 12:31:36;;;;;;;0.00;0.00;;;;;;;;;;5091019;28;20222;-77
2022/11/12 12:34:10;;;;;;;0.00;0.00;;;;;;;;;;5076173;28;20293;-76
2022/11/12 12:36:40;;;;;;;0.00;0.00;;;;;;;;;;5087798;28;20950;-77
2022/11/12 12:39:14;;;;;;;0.00;0.00;;;;;;;;;;5089057;28;20230;-77
2022/11/12 12:41:46;;;;;;;0.00;0.00;;;;;;;;;;5092573;28;20252;-77
2022/11/12 12:44:15;;;;;;;0.00;0.00;;;;;;;;;;5080963;28;20197;-77
2022/11/12 12:46:46;;;;;;;0.00;0.00;;;;;;;;;;5076548;28;20293;-76
2022/11/12 12:49:17;;;;;;;0.00;0.00;;;;;;;;;;5093553;28;20216;-76
2022/11/12 12:51:45;;;;;;;0.00;0.00;;;;;;;;;;5082727;28;20263;-77
2022/11/12 12:54:40;;;;;;;0.00;0.00;;;;;;;;;;5093768;28;20205;-77
2022/11/12 12:57:27;;;;;;;0.00;0.00;;;;;;;;;;5078893;28;20333;-77
2022/11/12 13:00:24;;;;;;;0.00;0.00;;;;;;;;;;5094682;28;20205;-76
2022/11/12 13:02:53;;;;;;;0.00;0.00;;;;;;;;;;5081840;28;20230;-77
2022/11/12 13:05:24;;;;;;;0.00;0.00;;;;;;;;;;5092601;28;20202;-76
2022/11/12 13:07:53;;;;;;;0.00;0.00;;;;;;;;;;5076425;28;20206;-76
2022/11/12 13:10:35;;;;;;;0.00;0.00;;;;;;;;;;5081464;28;20206;-77
2022/11/12 13:13:06;;;;;;;0.00;0.00;;;;;;;;;;5074933;28;20301;-78
2022/11/12 13:15:44;;;;;;;0.00;0.00;;;;;;;;;;5074198;28;20666;-78
2022/11/12 13:18:33;;;;;;;0.00;0.00;;;;;;;;;;5074669;28;20278;-78
2022/11/12 13:21:13;;;;;;;0.00;0.00;;;;;;;;;;5079036;28;20570;-78
2022/11/12 13:26:50;;;;;;;0.00;0.00;;;;;;;;;;5077307;28;20189;-78
2022/11/12 13:29:19;;;;;;;0.00;0.00;;;;;;;;;;5094679;28;20627;-78
2022/11/12 13:31:48;;;;;;;0.00;0.00;;;;;;;;;;5094303;28;20225;-78
2022/11/12 13:34:21;;;;;;;0.00;0.00;;;;;;;;;;5077242;28;20643;-78
2022/11/12 13:36:59;;;;;;;0.00;0.00;;;;;;;;;;5074028;28;20224;-78
2022/11/12 13:39:27;;;;;;;0.00;0.00;;;;;;;;;;5080892;28;20197;-78
2022/11/12 13:44:43;;;;;;;0.00;0.00;;;;;;;;;;5073519;28;20558;-78
2022/11/12 13:47:14;;;;;;;0.00;0.00;;;;;;;;;;4759375;28;10000529;-78
2022/11/12 13:49:43;;;;;;;0.00;0.00;;;;;;;;;;5102764;28;20194;-78
2022/11/12 13:52:15;;;;;;;0.00;0.00;;;;;;;;;;5092044;28;20230;-78
2022/11/12 13:54:43;;;;;;;0.00;0.00;;;;;;;;;;5083184;28;20651;-77
2022/11/12 13:57:16;;;;;;;0.00;0.00;;;;;;;;;;5071659;28;20210;-78
2022/11/12 13:59:47;;;;;;;0.00;0.00;;;;;;;;;;5072125;28;20256;-78
2022/11/12 14:02:20;;;;;;;0.00;0.00;;;;;;;;;;5071854;28;20218;-78
2022/11/12 14:04:49;;;;;;;0.00;0.00;;;;;;;;;;5088353;28;20259;-78
2022/11/12 14:07:30;;;;;;;0.00;0.00;;;;;;;;;;5091940;28;20213;-77
2022/11/12 14:10:03;;;;;;;0.00;0.00;;;;;;;;;;5092060;28;20208;-78
2022/11/12 14:12:49;;;;;;;0.00;0.00;;;;;;;;;;5077575;28;20218;-78
2022/11/12 14:15:24;;;;;;;0.00;0.00;;;;;;;;;;5070556;28;20659;-78
2022/11/12 14:17:57;;;;;;;0.00;0.00;;;;;;;;;;5070560;28;20221;-77
2022/11/12 14:20:29;;;;;;;0.00;0.00;;;;;;;;;;5071403;28;20194;-77
2022/11/12 14:23:04;;;;;;;0.00;0.00;;;;;;;;;;5072198;28;20699;-77
2022/11/12 14:25:33;;;;;;;0.00;0.00;;;;;;;;;;5072664;28;20220;-78
2022/11/12 14:28:02;;;;;;;0.00;0.00;;;;;;;;;;5072339;28;20198;-76
2022/11/12 14:30:31;;;;;;;0.00;0.00;;;;;;;;;;5072074;28;20218;-77
2022/11/12 14:33:01;;;;;;;0.00;0.00;;;;;;;;;;5075295;28;20230;-76
2022/11/12 14:35:31;;;;;;;0.00;0.00;;;;;;;;;;5075587;28;20206;-76
2022/11/12 14:38:04;;;;;;;0.00;0.00;;;;;;;;;;5076224;28;20683;-77
2022/11/12 14:40:34;;;;;;;0.00;0.00;;;;;;;;;;5076118;28;20627;-76
2022/11/12 14:43:03;;;;;;;0.00;0.00;;;;;;;;;;5085805;28;20242;-77
2022/11/12 14:45:32;;;;;;;0.00;0.00;;;;;;;;;;5083654;28;20231;-77
2022/11/12 14:48:03;;;;;;;0.00;0.00;;;;;;;;;;5090871;28;20199;-77
2022/11/12 14:50:33;;;;;;;0.00;0.00;;;;;;;;;;5075158;28;20206;-77
2022/11/12 14:53:12;;;;;;;0.00;0.00;;;;;;;;;;5082903;28;20210;-78
2022/11/12 14:55:43;;;;;;;0.00;0.00;;;;;;;;;;5084764;28;20198;-77
2022/11/12 14:58:14;;;;;;;0.00;0.00;;;;;;;;;;5076023;28;20557;-77
2022/11/12 15:00:44;;;;;;;0.00;0.00;;;;;;;;;;5075712;28;20588;-77
2022/11/12 15:03:15;;;;;;;0.00;0.00;;;;;;;;;;5076435;28;20644;-77
2022/11/12 15:05:54;;;;;;;0.00;0.00;;;;;;;;;;5075385;28;20210;-77
2022/11/12 15:08:31;;;;;;;0.00;0.00;;;;;;;;;;5075985;28;20677;-77
2022/11/12 15:11:21;;;;;;;0.00;0.00;;;;;;;;;;5074965;28;20210;-77
2022/11/12 15:13:51;;;;;;;0.00;0.00;;;;;;;;;;5084865;28;20267;-77
2022/11/12 15:16:22;;;;;;;0.00;0.00;;;;;;;;;;5082430;28;20631;-77
2022/11/12 15:19:05;;;;;;;0.00;0.00;;;;;;;;;;5077621;28;20215;-77
2022/11/12 15:21:34;;;;;;;0.00;0.00;;;;;;;;;;5077094;28;20237;-78
2022/11/12 15:24:15;;;;;;;0.00;0.00;;;;;;;;;;5083342;28;20538;-77
2022/11/12 15:26:45;;;;;;;0.00;0.00;;;;;;;;;;5093277;28;20201;-78
2022/11/12 15:29:19;;;;;;;0.00;0.00;;;;;;;;;;5079245;28;20202;-77
2022/11/12 15:31:49;;;;;;;0.00;0.00;;;;;;;;;;5089514;28;20214;-77